Time;durP1;ratioP1;P1;durP2;ratioP2;P2;SDS_P1;SDS_P2;PMS_P1;PMS_P2;Temp;Humidity;BMP_temperature;BMP_pressure;BME280_temperature;BME280_humidity;BME280_pressure;Samples;Min_cycle;Max_cycle;Signal;HPM_P1;HPM_P2
2023/06/11 00:01:51;;;;;;;12.60;11.37;;;;;;;18.61;66.67;96067.19;4993251;28;20181;-70
2023/06/11 00:04:19;;;;;;;12.23;10.93;;;;;;;18.38;67.64;96069.91;5005162;28;20272;-70
2023/06/11 00:06:45;;;;;;;12.37;11.27;;;;;;;18.39;67.75;96074.22;5010311;28;20161;-70
2023/06/11 00:09:11;;;;;;;12.43;10.33;;;;;;;18.44;67.68;96070.38;5012880;28;20440;-72
2023/06/11 00:11:41;;;;;;;11.37;10.07;;;;;;;18.45;67.80;96072.91;5012873;28;20412;-70
2023/06/11 00:14:08;;;;;;;12.37;11.27;;;;;;;18.61;67.41;96073.38;5010653;28;20243;-72
2023/06/11 00:16:36;;;;;;;13.07;10.70;;;;;;;18.61;67.21;96073.38;5006643;28;20474;-71
2023/06/11 00:19:03;;;;;;;11.90;10.90;;;;;;;18.43;68.05;96066.03;4993480;28;20400;-71
2023/06/11 00:21:29;;;;;;;12.73;11.50;;;;;;;18.27;68.64;96064.59;4987678;28;20432;-70
2023/06/11 00:23:55;;;;;;;12.93;11.83;;;;;;;18.20;69.11;96077.53;4987480;28;20443;-71
2023/06/11 00:26:22;;;;;;;14.57;13.27;;;;;;;18.33;68.53;96074.75;4987752;28;20219;-70
2023/06/11 00:28:47;;;;;;;11.83;10.63;;;;;;;18.45;67.94;96062.28;4987081;28;20623;-72
2023/06/11 00:31:13;;;;;;;12.63;11.33;;;;;;;18.57;67.71;96061.28;4987379;28;20496;-71
2023/06/11 00:33:38;;;;;;;11.90;10.77;;;;;;;18.76;66.84;96073.94;4985259;28;20565;-71
2023/06/11 00:36:04;;;;;;;12.70;10.87;;;;;;;18.69;67.43;96064.75;4986555;28;20374;-70
2023/06/11 00:38:30;;;;;;;12.50;11.30;;;;;;;18.59;67.52;96064.66;4987131;28;20568;-70
2023/06/11 00:40:56;;;;;;;13.30;12.00;;;;;;;18.61;67.72;96064.53;4986737;28;20511;-72
2023/06/11 00:43:23;;;;;;;11.80;10.27;;;;;;;18.33;68.41;96064.13;4986846;28;20643;-70
2023/06/11 00:45:50;;;;;;;12.10;11.00;;;;;;;18.34;68.47;96071.09;4987053;28;20180;-71
2023/06/11 00:48:20;;;;;;;11.40;10.30;;;;;;;18.26;68.77;96068.25;4987001;28;20778;-71
2023/06/11 00:50:49;;;;;;;12.80;11.60;;;;;;;18.43;68.38;96071.34;4986748;28;20442;-71
2023/06/11 00:53:17;;;;;;;11.80;10.60;;;;;;;18.46;68.10;96066.63;4986897;28;20441;-70
2023/06/11 00:55:42;;;;;;;12.17;11.07;;;;;;;18.22;68.86;96064.13;4986932;28;20458;-70
2023/06/11 00:58:13;;;;;;;12.63;11.53;;;;;;;18.18;69.18;96070.63;4987090;28;20984;-70
2023/06/11 01:00:59;;;;;;;11.57;10.37;;;;;;;18.09;69.42;96072.22;4987083;28;20189;-69
2023/06/11 01:03:27;;;;;;;11.17;10.13;;;;;;;18.01;69.41;96076.47;4986883;28;20403;-70
2023/06/11 01:06:13;;;;;;;12.10;10.80;;;;;;;17.83;69.97;96071.59;4987238;28;20404;-69
2023/06/11 01:08:39;;;;;;;9.73;8.83;;;;;;;17.89;70.27;96083.56;4986902;28;20491;-71
2023/06/11 01:11:09;;;;;;;13.50;10.30;;;;;;;18.03;69.24;96079.84;4986806;28;20511;-70
2023/06/11 01:13:37;;;;;;;11.73;10.53;;;;;;;17.90;69.92;96078.13;4986437;28;20918;-70
2023/06/11 01:16:14;;;;;;;10.73;9.73;;;;;;;17.96;69.42;96074.16;4987113;28;20463;-70
2023/06/11 01:18:53;;;;;;;12.63;9.53;;;;;;;17.86;69.61;96081.13;4987303;28;20440;-71
2023/06/11 01:21:23;;;;;;;12.07;10.87;;;;;;;18.17;68.23;96080.44;4987129;28;20929;-71
2023/06/11 01:24:03;;;;;;;10.43;9.50;;;;;;;18.11;68.35;96072.94;4986852;28;20838;-69
2023/06/11 01:26:55;;;;;;;10.50;9.40;;;;;;;17.90;68.95;96078.13;4987163;28;20431;-70
2023/06/11 01:29:22;;;;;;;10.17;8.97;;;;;;;17.86;68.76;96082.00;4986868;28;20844;-70
2023/06/11 01:31:50;;;;;;;10.50;9.50;;;;;;;17.83;68.75;96082.22;4986247;28;20420;-71
2023/06/11 01:34:16;;;;;;;10.17;9.27;;;;;;;17.79;68.66;96088.72;4986521;28;20434;-70
2023/06/11 01:36:41;;;;;;;10.87;9.70;;;;;;;17.86;68.39;96082.00;4986805;28;20478;-71
2023/06/11 01:39:08;;;;;;;10.17;9.37;;;;;;;17.71;68.91;96083.16;4986355;28;20941;-71
2023/06/11 01:41:34;;;;;;;9.97;8.50;;;;;;;17.65;69.00;96075.69;4989069;28;20875;-70
2023/06/11 01:44:00;;;;;;;9.60;8.70;;;;;;;17.73;68.53;96081.22;4990033;28;20457;-70
2023/06/11 01:46:26;;;;;;;9.67;8.87;;;;;;;17.78;68.46;96085.19;4990774;28;20238;-70
2023/06/11 01:48:51;;;;;;;9.40;8.60;;;;;;;17.72;68.51;96083.03;4990543;28;20180;-71
2023/06/11 01:51:16;;;;;;;9.03;8.13;;;;;;;17.48;69.67;96079.59;4990177;28;20839;-70
2023/06/11 01:53:42;;;;;;;9.90;8.90;;;;;;;17.60;68.87;96073.38;4989883;28;20187;-70
2023/06/11 01:56:08;;;;;;;9.90;8.90;;;;;;;17.80;68.14;96079.78;4990106;28;20201;-70
2023/06/11 01:58:33;;;;;;;9.00;8.10;;;;;;;17.69;68.74;96077.97;4989829;28;20173;-71
2023/06/11 02:00:59;;;;;;;8.23;7.43;;;;;;;17.64;68.69;96074.81;4990100;28;20188;-71
2023/06/11 02:03:25;;;;;;;11.43;8.90;;;;;;;17.60;68.98;96077.81;4989591;28;20522;-71
2023/06/11 02:05:50;;;;;;;9.87;8.83;;;;;;;17.63;68.74;96072.31;4990465;28;20558;-70
2023/06/11 02:08:16;;;;;;;9.50;8.60;;;;;;;17.68;68.47;96078.09;4990403;28;20172;-69
2023/06/11 02:10:45;;;;;;;10.60;8.90;;;;;;;17.53;68.84;96075.66;4990025;28;20319;-72
2023/06/11 02:13:12;;;;;;;10.23;9.23;;;;;;;17.48;69.13;96076.97;4989944;28;20169;-70
2023/06/11 02:15:37;;;;;;;9.30;8.40;;;;;;;17.35;69.48;96074.41;4987505;28;20459;-71
2023/06/11 02:18:03;;;;;;;8.60;7.80;;;;;;;17.41;69.13;96075.75;4989269;28;20420;-70
2023/06/11 02:20:28;;;;;;;9.50;8.63;;;;;;;17.42;69.16;96072.13;4989406;28;20203;-70
2023/06/11 02:22:53;;;;;;;8.70;7.90;;;;;;;17.31;69.77;96070.28;4989784;28;20246;-71
2023/06/11 02:25:19;;;;;;;8.67;7.87;;;;;;;17.40;69.62;96066.94;4985563;28;20194;-71
2023/06/11 02:27:45;;;;;;;18.20;9.20;;;;;;;17.52;68.74;96073.13;4989113;28;20181;-69
2023/06/11 02:30:10;;;;;;;13.27;8.10;;;;;;;17.48;69.21;96074.31;4989169;28;20196;-71
2023/06/11 02:32:36;;;;;;;9.90;8.80;;;;;;;17.34;69.19;96078.88;4989738;28;20212;-71
2023/06/11 02:35:01;;;;;;;12.17;8.83;;;;;;;17.42;68.93;96074.78;4989523;28;20244;-71
2023/06/11 02:37:27;;;;;;;8.90;8.10;;;;;;;17.44;69.30;96078.19;4989584;28;20534;-70
2023/06/11 02:39:52;;;;;;;10.33;9.20;;;;;;;17.44;68.69;96081.66;4989161;28;20287;-71
2023/06/11 02:42:17;;;;;;;9.10;8.20;;;;;;;17.47;68.71;96080.59;4989033;28;20713;-70
2023/06/11 02:44:43;;;;;;;11.30;8.87;;;;;;;17.28;69.08;96081.97;4989329;28;20188;-70
2023/06/11 02:47:08;;;;;;;9.97;8.97;;;;;;;17.30;69.10;96084.53;4989416;28;20196;-72
2023/06/11 02:49:34;;;;;;;9.30;8.50;;;;;;;17.47;68.22;96088.53;4989053;28;20243;-70
2023/06/11 02:52:00;;;;;;;9.30;8.40;;;;;;;17.20;69.51;96086.19;4988414;28;20248;-71
2023/06/11 02:54:25;;;;;;;12.00;9.03;;;;;;;17.23;69.20;96084.16;4987222;28;20262;-70
2023/06/11 02:56:51;;;;;;;11.03;10.13;;;;;;;17.29;69.46;96090.78;4988678;28;20565;-70
2023/06/11 02:59:16;;;;;;;15.40;7.90;;;;;;;17.30;69.18;96093.31;4988648;28;20195;-69
2023/06/11 03:01:41;;;;;;;10.87;9.83;;;;;;;17.13;69.98;96091.94;4989023;28;20641;-69
2023/06/11 03:04:07;;;;;;;10.27;9.37;;;;;;;16.84;71.00;96098.56;4988504;28;20180;-71
2023/06/11 03:06:33;;;;;;;9.87;8.80;;;;;;;16.97;70.31;96094.06;4988711;28;20169;-72
2023/06/11 03:08:58;;;;;;;9.17;8.10;;;;;;;17.07;70.34;96096.84;4988721;28;21050;-71
2023/06/11 03:11:24;;;;;;;9.60;8.40;;;;;;;17.06;70.19;96101.31;4988696;28;20420;-70
2023/06/11 03:13:49;;;;;;;8.97;8.07;;;;;;;17.02;70.41;96105.16;4988286;28;20249;-71
2023/06/11 03:16:14;;;;;;;9.80;8.90;;;;;;;16.92;70.18;96097.03;4988385;28;20196;-71
2023/06/11 03:18:42;;;;;;;11.40;9.20;;;;;;;16.89;70.45;96104.34;4988381;28;20211;-71
2023/06/11 03:21:08;;;;;;;21.17;10.13;;;;;;;16.79;71.28;96108.66;4988468;28;20229;-70
2023/06/11 03:23:33;;;;;;;10.20;9.20;;;;;;;16.92;70.71;96106.81;4988311;28;20856;-71
2023/06/11 03:25:59;;;;;;;9.87;8.97;;;;;;;16.87;70.51;96107.16;4988675;28;20192;-71
2023/06/11 03:28:26;;;;;;;12.93;8.53;;;;;;;16.93;70.51;96109.31;4988692;28;20580;-71
2023/06/11 03:30:51;;;;;;;10.50;8.63;;;;;;;16.91;70.67;96115.69;4988214;28;20192;-71
2023/06/11 03:33:17;;;;;;;11.57;8.53;;;;;;;17.08;69.98;96117.97;4988541;28;20447;-71
2023/06/11 03:35:42;;;;;;;10.23;9.23;;;;;;;16.78;70.59;96109.59;4988001;28;20248;-70
2023/06/11 03:38:08;;;;;;;18.73;9.47;;;;;;;16.67;71.44;96116.50;4988189;28;20239;-70
2023/06/11 03:40:34;;;;;;;22.60;11.50;;;;;;;16.91;70.85;96110.41;4988321;28;20243;-70
2023/06/11 03:42:59;;;;;;;11.80;9.57;;;;;;;16.79;70.65;96108.66;4988220;28;20677;-70
2023/06/11 03:45:25;;;;;;;13.63;9.60;;;;;;;16.84;70.88;96106.50;4987869;28;20420;-70
2023/06/11 03:47:52;;;;;;;10.93;8.67;;;;;;;16.87;70.38;96111.59;4988304;28;20687;-70
2023/06/11 03:50:18;;;;;;;12.47;8.60;;;;;;;16.89;70.45;96117.59;4988135;28;20607;-70
2023/06/11 03:52:43;;;;;;;8.97;8.07;;;;;;;17.03;69.84;96117.47;4988456;28;20438;-70
2023/06/11 03:55:09;;;;;;;10.27;8.30;;;;;;;17.02;69.57;96110.44;4988111;28;20549;-70
2023/06/11 03:57:35;;;;;;;11.03;9.50;;;;;;;17.19;69.15;96111.00;4987878;28;20173;-70
2023/06/11 04:00:00;;;;;;;10.33;9.10;;;;;;;17.13;69.92;96115.81;4987917;28;20427;-72
2023/06/11 04:02:26;;;;;;;10.70;8.60;;;;;;;17.18;69.77;96117.28;4987509;28;20251;-70
2023/06/11 04:04:51;;;;;;;10.30;9.13;;;;;;;17.21;69.30;96104.63;4986941;28;20174;-70
2023/06/11 04:07:17;;;;;;;11.20;9.07;;;;;;;17.44;68.76;96110.84;4987798;28;20176;-70
2023/06/11 04:09:42;;;;;;;9.80;8.80;;;;;;;17.36;68.96;96115.88;4987732;28;20196;-71
2023/06/11 04:12:08;;;;;;;11.67;9.77;;;;;;;17.66;67.85;96125.97;4987892;28;20216;-70
2023/06/11 04:14:33;;;;;;;9.47;8.57;;;;;;;17.85;66.92;96127.25;4987269;28;20180;-70
2023/06/11 04:16:58;;;;;;;10.37;9.33;;;;;;;17.90;66.98;96128.56;4987863;28;20826;-70
2023/06/11 04:19:24;;;;;;;10.67;8.30;;;;;;;17.89;66.82;96128.69;4987558;28;20201;-70
2023/06/11 04:21:49;;;;;;;10.00;9.10;;;;;;;18.16;66.15;96141.63;4987399;28;20177;-71
2023/06/11 04:24:15;;;;;;;10.37;9.37;;;;;;;18.16;66.12;96139.81;4987228;28;20168;-71
2023/06/11 04:26:40;;;;;;;10.20;8.43;;;;;;;18.27;65.52;96136.31;4987976;28;20172;-70
2023/06/11 04:29:08;;;;;;;11.27;10.03;;;;;;;18.19;65.57;96131.63;4987335;28;20286;-70
2023/06/11 04:31:33;;;;;;;10.70;9.40;;;;;;;18.20;66.10;96140.44;4987445;28;20331;-70
2023/06/11 04:34:03;;;;;;;9.80;8.80;;;;;;;18.27;65.34;96138.97;4987103;28;20508;-70
2023/06/11 04:36:29;;;;;;;10.70;9.60;;;;;;;18.32;65.69;96128.00;4987245;28;20283;-69
2023/06/11 04:38:55;;;;;;;10.73;9.73;;;;;;;18.28;65.33;96127.38;4987344;28;20500;-70
2023/06/11 04:41:23;;;;;;;10.27;9.00;;;;;;;18.51;64.87;96130.03;4987916;28;20416;-70
2023/06/11 04:43:49;;;;;;;13.40;8.50;;;;;;;18.62;64.42;96138.00;4987266;28;20311;-69
2023/06/11 04:46:14;;;;;;;22.13;10.80;;;;;;;18.51;64.90;96130.84;4987395;28;20984;-70
2023/06/11 04:48:40;;;;;;;18.27;9.47;;;;;;;18.81;64.07;96129.41;4987683;28;20567;-70
2023/06/11 04:51:06;;;;;;;10.87;9.60;;;;;;;18.85;63.43;96133.50;4987327;28;20208;-70
2023/06/11 04:53:36;;;;;;;12.07;9.90;;;;;;;18.52;64.84;96137.88;4987165;28;20176;-71
2023/06/11 04:56:02;;;;;;;12.17;9.53;;;;;;;18.80;64.09;96135.66;4987231;28;20736;-71
2023/06/11 04:58:30;;;;;;;11.00;9.90;;;;;;;18.66;64.18;96128.81;4987400;28;20424;-70
2023/06/11 05:00:56;;;;;;;11.83;9.23;;;;;;;19.10;63.30;96126.16;4987225;28;21051;-70
2023/06/11 05:03:24;;;;;;;14.77;10.50;;;;;;;19.22;62.65;96122.50;4987168;28;20768;-70
2023/06/11 05:05:51;;;;;;;10.63;9.73;;;;;;;18.78;64.02;96130.50;4988239;28;20431;-70
2023/06/11 05:08:25;;;;;;;11.10;10.07;;;;;;;18.92;63.76;96129.38;4989104;28;20773;-70
2023/06/11 05:10:51;;;;;;;11.53;10.07;;;;;;;18.92;63.70;96125.84;4988465;28;20443;-69
2023/06/11 05:13:24;;;;;;;14.50;10.70;;;;;;;19.12;63.13;96127.72;4986951;28;20424;-71
2023/06/11 05:15:51;;;;;;;11.40;10.03;;;;;;;19.25;62.68;96133.72;4988364;28;20467;-70
2023/06/11 05:18:16;;;;;;;11.13;9.93;;;;;;;19.42;62.17;96126.16;4990616;28;20499;-71
2023/06/11 05:20:42;;;;;;;11.43;10.40;;;;;;;19.26;62.49;96134.56;4990878;28;20432;-71
2023/06/11 05:23:07;;;;;;;11.33;10.27;;;;;;;19.51;61.81;96136.00;4990903;28;20192;-72
2023/06/11 05:25:33;;;;;;;11.50;10.47;;;;;;;19.62;61.55;96141.28;4992598;28;20193;-71
2023/06/11 05:28:02;;;;;;;10.10;9.13;;;;;;;19.67;61.14;96144.41;4992533;28;20203;-72
2023/06/11 05:30:29;;;;;;;13.10;9.87;;;;;;;19.97;60.45;96142.81;4992758;28;20283;-71
2023/06/11 05:32:56;;;;;;;28.37;10.43;;;;;;;20.05;60.07;96134.97;4991266;28;20427;-71
2023/06/11 05:35:22;;;;;;;15.27;11.73;;;;;;;20.09;59.84;96135.56;4990518;28;20566;-70
2023/06/11 05:37:48;;;;;;;10.63;9.57;;;;;;;19.81;60.69;96145.91;4990399;28;20420;-71
2023/06/11 05:40:13;;;;;;;11.83;10.63;;;;;;;19.49;61.65;96142.44;4990353;28;20438;-69
2023/06/11 05:42:39;;;;;;;13.20;10.70;;;;;;;19.74;61.17;96141.25;4990310;28;20186;-72
2023/06/11 05:45:06;;;;;;;11.33;10.33;;;;;;;19.96;60.50;96143.78;4990187;28;20179;-71
2023/06/11 05:47:32;;;;;;;11.13;10.13;;;;;;;19.88;60.35;96141.75;4990315;28;20223;-69
2023/06/11 05:49:58;;;;;;;21.10;11.53;;;;;;;20.31;58.98;96150.53;4990384;28;20431;-70
2023/06/11 05:52:23;;;;;;;11.03;10.03;;;;;;;20.05;59.61;96144.81;4990285;28;20419;-71
2023/06/11 05:54:48;;;;;;;16.73;11.13;;;;;;;20.20;59.93;96137.31;4990061;28;20283;-70
2023/06/11 05:57:19;;;;;;;10.63;9.60;;;;;;;20.11;59.78;96138.94;4990428;28;20212;-69
2023/06/11 05:59:44;;;;;;;11.07;9.93;;;;;;;19.71;60.90;96149.50;4990370;28;20227;-70
2023/06/11 06:02:09;;;;;;;11.10;10.10;;;;;;;19.80;60.68;96156.72;4989778;28;20854;-71
2023/06/11 06:04:35;;;;;;;13.13;11.10;;;;;;;19.93;60.38;96144.03;4989724;28;20184;-70
2023/06/11 06:07:00;;;;;;;10.10;9.10;;;;;;;20.42;58.90;96152.28;4990120;28;20275;-71
2023/06/11 06:09:25;;;;;;;12.57;11.47;;;;;;;20.60;58.06;96144.50;4990075;28;20325;-71
2023/06/11 06:11:51;;;;;;;10.10;9.20;;;;;;;20.77;57.38;96146.53;4989814;28;20251;-71
2023/06/11 06:14:16;;;;;;;10.43;9.50;;;;;;;20.72;57.40;96148.78;4989345;28;20642;-71
2023/06/11 06:16:41;;;;;;;18.77;10.70;;;;;;;20.73;57.75;96147.78;4989737;28;20203;-71
2023/06/11 06:19:07;;;;;;;11.73;10.53;;;;;;;20.16;59.43;96155.38;4989630;28;20620;-70
2023/06/11 06:21:32;;;;;;;10.73;9.67;;;;;;;20.52;58.47;96148.66;4989711;28;20255;-72
2023/06/11 06:23:57;;;;;;;13.73;10.67;;;;;;;20.68;57.87;96155.34;4989537;28;20173;-70
2023/06/11 06:26:24;;;;;;;12.37;10.43;;;;;;;20.21;59.43;96165.66;4989594;28;20881;-70
2023/06/11 06:28:52;;;;;;;12.00;10.87;;;;;;;20.40;59.16;96149.72;4988726;28;20482;-70
2023/06/11 06:31:18;;;;;;;10.97;9.87;;;;;;;20.48;58.85;96157.06;4989695;28;20183;-71
2023/06/11 06:33:44;;;;;;;11.47;10.37;;;;;;;20.21;59.62;96166.47;4989314;28;20507;-71
2023/06/11 06:36:09;;;;;;;11.10;10.10;;;;;;;20.49;58.46;96159.59;4989378;28;20596;-71
2023/06/11 06:38:36;;;;;;;12.03;10.17;;;;;;;20.61;58.75;96167.53;4989561;28;20177;-70
2023/06/11 06:41:02;;;;;;;10.30;9.50;;;;;;;20.73;58.13;96167.28;4989168;28;20211;-69
2023/06/11 06:43:28;;;;;;;10.23;9.13;;;;;;;20.81;57.57;96171.97;4989087;28;20539;-69
2023/06/11 06:45:53;;;;;;;10.03;9.03;;;;;;;21.13;57.25;96170.91;4994812;28;20416;-71
2023/06/11 06:48:20;;;;;;;9.87;8.80;;;;;;;20.79;57.61;96171.25;4991290;28;20208;-70
2023/06/11 06:50:45;;;;;;;11.50;9.90;;;;;;;20.87;57.47;96178.56;4989331;28;20438;-71
2023/06/11 06:53:11;;;;;;;10.70;9.20;;;;;;;20.95;56.98;96170.69;4989085;28;20850;-70
2023/06/11 06:55:36;;;;;;;16.40;9.60;;;;;;;21.25;55.73;96167.09;4988815;28;20217;-71
2023/06/11 06:58:02;;;;;;;10.90;9.90;;;;;;;21.49;55.19;96171.22;4988859;28;20264;-71
2023/06/11 07:00:27;;;;;;;10.50;9.60;;;;;;;21.08;55.32;96170.47;4989152;28;20199;-71
2023/06/11 07:02:52;;;;;;;11.33;10.03;;;;;;;21.08;55.64;96165.13;4988728;28;20187;-71
2023/06/11 07:05:18;;;;;;;11.80;9.70;;;;;;;21.17;55.50;96160.81;4988484;28;20229;-71
2023/06/11 07:07:43;;;;;;;10.73;9.70;;;;;;;21.20;55.33;96172.03;4988865;28;20527;-72
2023/06/11 07:10:09;;;;;;;11.00;9.90;;;;;;;20.94;56.32;96180.53;4989001;28;20705;-71
2023/06/11 07:12:34;;;;;;;11.57;10.37;;;;;;;21.20;54.57;96169.34;4988902;28;20200;-69
2023/06/11 07:15:00;;;;;;;11.10;9.87;;;;;;;21.54;54.01;96168.97;4988454;28;20219;-70
2023/06/11 07:17:25;;;;;;;9.57;8.67;;;;;;;21.42;52.51;96170.94;4988790;28;20211;-71
2023/06/11 07:19:51;;;;;;;9.67;8.77;;;;;;;21.44;52.95;96163.63;4988669;28;20200;-72
2023/06/11 07:22:17;;;;;;;9.97;8.97;;;;;;;21.75;52.39;96163.50;4988415;28;20639;-70
2023/06/11 07:24:47;;;;;;;9.77;8.63;;;;;;;21.85;51.08;96169.69;4988194;28;20184;-70
2023/06/11 07:27:13;;;;;;;13.60;8.50;;;;;;;21.94;51.54;96167.97;4988579;28;20625;-71
2023/06/11 07:29:39;;;;;;;11.73;8.93;;;;;;;21.86;50.42;96173.19;4988511;28;20427;-71
2023/06/11 07:32:06;;;;;;;10.40;8.10;;;;;;;21.95;50.96;96177.69;4988380;28;20408;-71
2023/06/11 07:34:31;;;;;;;9.77;8.87;;;;;;;22.21;49.19;96179.78;4988242;28;20181;-71
2023/06/11 07:36:56;;;;;;;9.20;8.30;;;;;;;21.93;49.75;96168.97;4988439;28;20452;-70
2023/06/11 07:39:22;;;;;;;8.33;7.73;;;;;;;21.99;49.53;96173.72;4991187;28;20224;-71
2023/06/11 07:41:47;;;;;;;9.63;7.90;;;;;;;21.86;50.24;96167.84;4988551;28;20192;-70
2023/06/11 07:44:13;;;;;;;9.10;8.30;;;;;;;21.95;49.06;96172.34;4988245;28;20957;-71
2023/06/11 07:46:38;;;;;;;9.87;8.87;;;;;;;21.94;48.86;96178.66;4988363;28;20184;-71
2023/06/11 07:49:04;;;;;;;10.63;8.07;;;;;;;22.18;48.77;96160.34;4988170;28;20177;-71
2023/06/11 07:51:31;;;;;;;8.30;7.50;;;;;;;22.53;48.29;96164.16;4988207;28;20176;-71
2023/06/11 07:53:58;;;;;;;16.47;8.20;;;;;;;22.45;47.95;96166.75;4987830;28;20840;-70
2023/06/11 07:56:26;;;;;;;11.73;9.20;;;;;;;22.26;48.88;96172.16;4987783;28;20466;-71
2023/06/11 07:58:51;;;;;;;8.53;7.73;;;;;;;21.97;49.40;96170.38;4987943;28;20416;-70
2023/06/11 08:01:17;;;;;;;9.20;8.40;;;;;;;22.20;48.09;96173.53;4987991;28;20420;-71
2023/06/11 08:03:42;;;;;;;8.70;8.00;;;;;;;22.71;46.82;96158.88;4987620;28;20268;-70
2023/06/11 08:06:09;;;;;;;10.87;8.30;;;;;;;22.71;46.43;96161.56;4987616;28;20180;-70
2023/06/11 08:08:34;;;;;;;9.63;8.73;;;;;;;22.92;46.47;96168.50;4987731;28;20834;-70
2023/06/11 08:11:00;;;;;;;9.40;8.50;;;;;;;23.16;46.21;96154.56;4987540;28;20443;-69
2023/06/11 08:13:25;;;;;;;12.60;8.50;;;;;;;22.94;45.82;96163.84;4987492;28;20280;-71
2023/06/11 08:15:51;;;;;;;8.90;8.10;;;;;;;22.45;46.37;96171.25;4987672;28;20210;-72
2023/06/11 08:18:16;;;;;;;8.73;7.70;;;;;;;23.07;44.88;96169.69;4987442;28;20181;-71
2023/06/11 08:20:42;;;;;;;8.50;7.70;;;;;;;22.75;45.16;96159.44;4987554;28;20188;-70
2023/06/11 08:23:07;;;;;;;8.90;8.20;;;;;;;23.40;44.47;96165.53;4987477;28;20610;-71
2023/06/11 08:25:33;;;;;;;7.83;7.23;;;;;;;23.74;43.36;96154.16;4987321;28;20175;-70
2023/06/11 08:27:58;;;;;;;8.27;7.47;;;;;;;23.87;43.05;96149.22;4987977;28;20260;-70
2023/06/11 08:30:24;;;;;;;10.17;7.43;;;;;;;23.84;42.62;96146.03;4987740;28;20203;-71
2023/06/11 08:32:49;;;;;;;10.60;7.03;;;;;;;23.68;42.46;96147.53;4987740;28;20531;-71
2023/06/11 08:35:15;;;;;;;8.03;7.23;;;;;;;23.61;42.33;96148.31;4986951;28;20212;-70
2023/06/11 08:37:40;;;;;;;7.37;6.77;;;;;;;23.13;43.19;96146.84;4987602;28;20185;-71
2023/06/11 08:40:08;;;;;;;9.33;8.53;;;;;;;23.08;43.10;96163.38;4986929;28;20639;-72
2023/06/11 08:42:34;;;;;;;10.70;6.87;;;;;;;23.28;43.23;96147.16;4987064;28;20259;-71
2023/06/11 08:45:01;;;;;;;8.07;7.33;;;;;;;23.52;42.30;96146.56;4987013;28;20404;-71
2023/06/11 08:47:30;;;;;;;10.70;7.43;;;;;;;23.68;42.53;96149.38;4987067;28;20498;-71
2023/06/11 08:49:58;;;;;;;18.93;9.20;;;;;;;24.08;40.86;96137.31;4986767;28;20436;-71
2023/06/11 08:52:26;;;;;;;9.57;7.30;;;;;;;23.65;40.93;96125.56;4987318;28;20407;-71
2023/06/11 08:54:52;;;;;;;10.97;7.83;;;;;;;23.98;40.64;96136.56;4987405;28;20434;-70
2023/06/11 08:57:18;;;;;;;9.23;7.87;;;;;;;23.88;40.90;96137.50;4987445;28;20940;-71
2023/06/11 08:59:44;;;;;;;9.93;7.03;;;;;;;23.77;41.13;96132.41;4987473;28;20463;-70
2023/06/11 09:02:09;;;;;;;8.90;7.00;;;;;;;23.93;40.67;96134.38;4987222;28;20808;-71
2023/06/11 09:04:34;;;;;;;9.63;7.60;;;;;;;23.84;41.16;96129.94;4986877;28;20181;-70
2023/06/11 09:07:00;;;;;;;9.53;7.53;;;;;;;23.75;41.12;96139.75;4987327;28;20167;-71
2023/06/11 09:09:26;;;;;;;8.60;7.70;;;;;;;23.82;41.14;96145.34;4987102;28;20200;-72
2023/06/11 09:11:52;;;;;;;8.10;7.30;;;;;;;23.65;41.35;96144.34;4987313;28;20219;-71
2023/06/11 09:14:17;;;;;;;9.03;6.50;;;;;;;23.33;42.01;96142.19;4986609;28;20199;-70
2023/06/11 09:16:45;;;;;;;7.17;6.47;;;;;;;23.78;41.42;96136.75;4987074;28;20209;-71
2023/06/11 09:19:20;;;;;;;6.77;6.27;;;;;;;24.26;39.88;96139.91;4987196;28;20596;-71
2023/06/11 09:21:50;;;;;;;8.67;6.87;;;;;;;24.36;39.02;96143.34;4986725;28;20431;-71
2023/06/11 09:24:17;;;;;;;7.17;6.47;;;;;;;24.13;39.72;96128.78;4986216;28;20426;-71
2023/06/11 09:26:52;;;;;;;8.60;6.57;;;;;;;23.70;40.74;96138.50;4986876;28;20416;-71
2023/06/11 09:29:17;;;;;;;7.30;6.70;;;;;;;24.05;39.89;96145.69;4987042;28;20534;-72
2023/06/11 09:31:43;;;;;;;7.50;6.90;;;;;;;23.91;39.79;96139.03;4987002;28;20416;-71
2023/06/11 09:34:12;;;;;;;7.77;6.90;;;;;;;24.38;39.42;96129.75;4985989;28;20205;-70
2023/06/11 09:36:37;;;;;;;8.73;6.37;;;;;;;24.18;39.87;96134.50;4986472;28;20193;-71
2023/06/11 09:39:03;;;;;;;7.93;7.13;;;;;;;23.77;40.31;96132.41;4986523;28;20446;-71
2023/06/11 09:41:29;;;;;;;7.30;6.63;;;;;;;23.74;40.64;96140.75;4986560;28;20184;-70
2023/06/11 09:43:54;;;;;;;8.00;7.30;;;;;;;24.03;40.38;96137.78;4986204;28;20909;-71
2023/06/11 09:46:22;;;;;;;8.13;7.37;;;;;;;24.20;39.94;96140.56;4986636;28;20181;-71
2023/06/11 09:48:48;;;;;;;7.07;6.47;;;;;;;23.66;40.13;96154.03;4986524;28;20169;-71
2023/06/11 09:51:21;;;;;;;8.77;7.00;;;;;;;23.36;40.41;96142.75;4986279;28;20443;-71
2023/06/11 09:53:50;;;;;;;7.90;7.20;;;;;;;23.57;40.28;96146.94;4986169;28;20184;-71
2023/06/11 09:56:16;;;;;;;12.60;6.60;;;;;;;23.59;40.42;96144.94;4986743;28;20452;-71
2023/06/11 09:58:42;;;;;;;7.23;6.53;;;;;;;24.04;39.72;96142.13;4986768;28;20420;-73
2023/06/11 10:01:07;;;;;;;10.00;6.50;;;;;;;24.32;38.86;96135.78;4986551;28;20466;-73
2023/06/11 10:03:33;;;;;;;7.00;6.40;;;;;;;24.00;39.40;96151.50;4988883;28;20181;-70
2023/06/11 10:05:59;;;;;;;7.80;7.13;;;;;;;24.04;39.26;96136.75;4989885;28;20169;-72
2023/06/11 10:08:31;;;;;;;43.30;10.63;;;;;;;24.16;38.48;96144.56;4989905;28;20176;-71
2023/06/11 10:11:03;;;;;;;7.70;6.17;;;;;;;24.30;37.61;96144.81;4990374;28;20490;-71
2023/06/11 10:13:31;;;;;;;11.60;7.60;;;;;;;24.13;38.15;96145.72;4990254;28;20957;-70
2023/06/11 10:16:06;;;;;;;7.10;6.50;;;;;;;23.65;39.13;96145.16;4989609;28;20463;-71
2023/06/11 10:18:32;;;;;;;11.03;8.63;;;;;;;23.78;38.63;96147.47;4990126;28;20415;-71
2023/06/11 10:21:00;;;;;;;7.83;7.00;;;;;;;24.05;37.27;96145.69;4989997;28;20506;-70
2023/06/11 10:23:41;;;;;;;8.00;7.20;;;;;;;24.01;36.64;96152.34;4989647;28;20192;-72
2023/06/11 10:26:08;;;;;;;9.47;6.43;;;;;;;23.85;36.33;96135.13;4990049;28;20499;-72
2023/06/11 10:28:48;;;;;;;12.00;7.33;;;;;;;24.48;37.27;96146.63;4989822;28;20424;-71
2023/06/11 10:31:27;;;;;;;7.00;6.30;;;;;;;24.24;37.73;96136.56;4990043;28;20466;-72
2023/06/11 10:34:00;;;;;;;7.00;6.40;;;;;;;24.00;38.74;96145.28;4989768;28;20790;-72
2023/06/11 10:36:26;;;;;;;7.93;6.90;;;;;;;24.13;38.16;96148.41;4989759;28;20574;-71
2023/06/11 10:39:04;;;;;;;7.77;7.07;;;;;;;24.27;37.40;96141.63;4989602;28;20434;-73
2023/06/11 10:41:32;;;;;;;7.63;7.00;;;;;;;24.09;38.34;96142.53;4990132;28;20440;-71
2023/06/11 10:44:00;;;;;;;7.30;6.70;;;;;;;23.66;38.11;96143.31;4989662;28;20427;-72
2023/06/11 10:46:26;;;;;;;8.10;7.00;;;;;;;23.76;37.31;96140.59;4989864;28;20419;-72
2023/06/11 10:48:54;;;;;;;7.00;6.40;;;;;;;24.04;36.19;96133.25;4988741;28;20439;-73
2023/06/11 10:51:20;;;;;;;7.97;6.50;;;;;;;23.86;36.62;96139.50;4989813;28;20188;-71
2023/06/11 10:53:54;;;;;;;8.23;7.43;;;;;;;24.41;36.68;96145.56;4989030;28;20418;-71
2023/06/11 10:56:24;;;;;;;8.20;6.73;;;;;;;24.28;36.61;96135.25;4989325;28;20467;-72
2023/06/11 10:58:50;;;;;;;7.80;7.10;;;;;;;24.51;36.95;96135.56;4988315;28;20506;-71
2023/06/11 11:01:20;;;;;;;7.50;6.80;;;;;;;24.71;36.68;96145.06;4989721;28;20444;-70
2023/06/11 11:03:46;;;;;;;6.60;6.00;;;;;;;24.41;36.55;96134.81;4989002;28;20431;-72
2023/06/11 11:06:13;;;;;;;7.80;7.20;;;;;;;24.30;36.48;96142.13;4987874;28;20416;-71
2023/06/11 11:08:38;;;;;;;7.23;6.50;;;;;;;24.12;36.72;96136.00;4989802;28;20424;-71
2023/06/11 11:11:04;;;;;;;10.00;7.20;;;;;;;24.17;35.85;96136.38;4989175;28;20530;-71
2023/06/11 11:13:30;;;;;;;12.23;7.37;;;;;;;24.17;36.26;96154.31;4988794;28;20185;-70
2023/06/11 11:15:58;;;;;;;7.03;6.33;;;;;;;24.38;35.89;96136.00;4989458;28;20463;-72
2023/06/11 11:18:24;;;;;;;9.13;6.40;;;;;;;24.22;36.03;96138.56;4989249;28;20173;-73
2023/06/11 11:20:52;;;;;;;6.57;6.07;;;;;;;24.43;36.00;96138.19;4989397;28;20768;-73
2023/06/11 11:23:18;;;;;;;6.93;6.23;;;;;;;24.49;35.91;96138.41;4989393;28;20201;-72
2023/06/11 11:25:43;;;;;;;7.30;6.70;;;;;;;24.27;36.24;96130.88;4989398;28;20710;-72